Time;durP1;ratioP1;P1;durP2;ratioP2;P2;SDS_P1;SDS_P2;PMS_P1;PMS_P2;Temp;Humidity;BMP_temperature;BMP_pressure;BME280_temperature;BME280_humidity;BME280_pressure;Samples;Min_cycle;Max_cycle;Signal;HPM_P1;HPM_P2
2023/03/20 00:00:36;;;;;;;0.55;0.55;;;;;;;3.18;100.00;93171.38;2074716;28;20104;-86
2023/03/20 00:01:44;;;;;;;1.55;0.50;;;;;;;3.07;100.00;93172.41;2076597;28;20073;-85
2023/03/20 00:02:51;;;;;;;0.50;0.50;;;;;;;3.10;100.00;93169.03;2090397;28;20033;-85
2023/03/20 00:04:01;;;;;;;0.50;0.50;;;;;;;3.16;100.00;93168.34;2074430;28;20043;-84
2023/03/20 00:05:17;;;;;;;0.68;0.63;;;;;;;3.18;100.00;93170.63;2088223;28;20163;-86
2023/03/20 00:06:27;;;;;;;0.60;0.60;;;;;;;3.17;100.00;93167.22;2082035;28;20523;-85
2023/03/20 00:07:36;;;;;;;0.60;0.60;;;;;;;3.14;100.00;93170.59;2075259;28;20030;-84
2023/03/20 00:08:38;;;;;;;0.60;0.60;;;;;;;3.14;100.00;93167.94;2074946;28;20037;-85
2023/03/20 00:09:48;;;;;;;0.60;0.60;;;;;;;3.12;100.00;93172.09;2068940;28;20053;-86
2023/03/20 00:10:54;;;;;;;0.57;0.57;;;;;;;3.18;100.00;93174.00;2075180;28;20026;-86
2023/03/20 00:11:59;;;;;;;0.63;0.63;;;;;;;3.15;100.00;93173.97;2087733;28;20064;-85
2023/03/20 00:13:10;;;;;;;1.05;0.60;;;;;;;3.17;100.00;93174.38;2082734;28;20532;-85
2023/03/20 00:14:16;;;;;;;1.00;0.70;;;;;;;3.43;100.00;93176.06;2085306;28;20044;-86
2023/03/20 00:15:23;;;;;;;0.63;0.63;;;;;;;3.34;100.00;93178.28;2082699;28;20037;-85
2023/03/20 00:16:30;;;;;;;0.98;0.70;;;;;;;3.29;100.00;93179.34;2083758;28;20025;-86
2023/03/20 00:17:38;;;;;;;0.52;0.52;;;;;;;3.57;100.00;93175.38;2090964;28;20084;-85
2023/03/20 00:18:46;;;;;;;1.73;0.60;;;;;;;3.46;100.00;93176.06;2083003;28;20025;-85
2023/03/20 00:19:52;;;;;;;0.70;0.68;;;;;;;3.43;100.00;93176.81;2083948;28;20112;-86
2023/03/20 00:20:59;;;;;;;0.65;0.60;;;;;;;3.45;100.00;93179.84;2083464;28;20032;-86
2023/03/20 00:22:03;;;;;;;0.77;0.70;;;;;;;3.40;100.00;93174.16;2075872;28;20046;-85
2023/03/20 00:23:11;;;;;;;0.93;0.77;;;;;;;3.39;100.00;93183.22;2083014;28;20018;-85
2023/03/20 00:24:21;;;;;;;0.80;0.80;;;;;;;3.39;100.00;93173.41;2082957;28;20060;-84
2023/03/20 00:25:28;;;;;;;0.93;0.80;;;;;;;3.30;100.00;93180.13;2084675;28;20394;-85
2023/03/20 00:26:39;;;;;;;0.65;0.65;;;;;;;3.40;100.00;93180.19;2083011;28;20494;-83
2023/03/20 00:27:54;;;;;;;1.17;0.80;;;;;;;3.37;100.00;93177.53;2085337;28;20036;-85
2023/03/20 00:29:00;;;;;;;1.00;0.90;;;;;;;3.32;100.00;93180.50;2083951;28;20025;-85
2023/03/20 00:30:19;;;;;;;2.55;0.88;;;;;;;3.32;100.00;93175.22;2075545;28;20029;-86
2023/03/20 00:31:31;;;;;;;1.33;0.98;;;;;;;3.37;100.00;93173.00;2079030;28;20077;-85
2023/03/20 00:32:37;;;;;;;1.15;0.90;;;;;;;3.42;100.00;93174.53;2077409;28;20045;-84
2023/03/20 00:33:40;;;;;;;1.25;1.00;;;;;;;3.32;100.00;93176.00;2075776;28;20036;-85
2023/03/20 00:34:45;;;;;;;1.05;0.80;;;;;;;3.54;100.00;93176.88;2074851;28;20405;-85
2023/03/20 00:35:51;;;;;;;0.88;0.88;;;;;;;3.52;100.00;93181.78;2083475;28;20026;-85
2023/03/20 00:36:59;;;;;;;1.20;1.10;;;;;;;3.52;100.00;93185.19;2082025;28;20513;-85
2023/03/20 00:38:00;;;;;;;1.13;0.90;;;;;;;3.54;100.00;93182.16;2082903;28;20764;-84
2023/03/20 00:39:05;;;;;;;2.13;1.10;;;;;;;3.46;100.00;93175.31;2081833;28;20025;-86
2023/03/20 00:40:13;;;;;;;1.02;0.98;;;;;;;3.39;100.00;93175.28;2074315;28;20494;-86
2023/03/20 00:41:44;;;;;;;2.25;1.00;;;;;;;3.36;100.00;93183.94;2075849;28;20030;-85
2023/03/20 00:43:01;;;;;;;1.45;1.33;;;;;;;3.31;100.00;93173.72;2073792;28;20036;-85
2023/03/20 00:44:23;;;;;;;1.45;1.30;;;;;;;3.36;100.00;93181.28;2078671;28;20049;-85
2023/03/20 00:45:25;;;;;;;1.50;1.10;;;;;;;3.39;100.00;93181.31;2076635;28;20144;-85
2023/03/20 00:46:36;;;;;;;3.28;1.17;;;;;;;3.36;100.00;93182.06;2073872;28;20060;-86
2023/03/20 00:47:41;;;;;;;1.10;1.00;;;;;;;3.41;100.00;93183.59;2083071;28;20486;-85
2023/03/20 00:48:57;;;;;;;1.33;1.10;;;;;;;3.41;100.00;93179.06;2082412;28;20028;-85
2023/03/20 00:50:08;;;;;;;1.10;1.00;;;;;;;3.34;100.00;93184.31;2087922;28;20107;-85
2023/03/20 00:51:19;;;;;;;1.63;1.15;;;;;;;3.39;100.00;93177.94;2075496;28;20022;-86
2023/03/20 00:52:25;;;;;;;2.15;0.98;;;;;;;3.51;100.00;93178.38;2077124;28;20481;-85
2023/03/20 00:53:29;;;;;;;1.75;1.10;;;;;;;3.53;100.00;93184.03;2075686;28;20022;-85
2023/03/20 00:54:30;;;;;;;2.20;1.00;;;;;;;3.53;100.00;93183.28;2076252;28;20012;-85
2023/03/20 00:55:32;;;;;;;1.15;1.02;;;;;;;3.59;100.00;93178.41;2087694;28;20029;-86
2023/03/20 00:56:37;;;;;;;0.95;0.95;;;;;;;3.56;100.00;93177.28;2074366;28;20650;-85
2023/03/20 00:58:00;;;;;;;1.42;1.02;;;;;;;3.58;100.00;93179.53;2083359;28;20075;-85
2023/03/20 00:59:03;;;;;;;1.10;1.00;;;;;;;3.57;100.00;93185.97;2084730;28;20028;-86
2023/03/20 01:00:20;;;;;;;2.25;1.15;;;;;;;3.55;100.00;93186.31;2073695;28;20030;-86
2023/03/20 01:01:21;;;;;;;1.23;1.13;;;;;;;3.54;100.00;93188.19;2078345;28;20086;-84
2023/03/20 01:02:27;;;;;;;1.10;1.00;;;;;;;3.56;100.00;93190.50;2082258;28;20509;-85
2023/03/20 01:03:29;;;;;;;1.00;0.90;;;;;;;3.58;100.00;93182.19;2075219;28;20026;-85
2023/03/20 01:04:38;;;;;;;1.42;1.02;;;;;;;3.53;100.00;93185.94;2066309;28;20034;-85
2023/03/20 01:05:40;;;;;;;1.00;0.90;;;;;;;3.56;100.00;93185.19;2068833;28;20030;-85
2023/03/20 01:06:41;;;;;;;1.10;1.00;;;;;;;3.59;100.00;93188.97;2074066;28;20584;-85
2023/03/20 01:07:43;;;;;;;1.13;0.95;;;;;;;3.61;100.00;93189.38;2073985;28;20026;-85
2023/03/20 01:08:45;;;;;;;1.27;1.00;;;;;;;3.58;100.00;93188.22;2082264;28;20492;-85
2023/03/20 01:09:46;;;;;;;1.40;0.80;;;;;;;3.54;100.00;93188.19;2089730;28;20103;-85
2023/03/20 01:10:52;;;;;;;0.88;0.88;;;;;;;3.61;100.00;93192.03;2090545;28;20768;-85
2023/03/20 01:11:53;;;;;;;0.63;0.63;;;;;;;3.67;100.00;93185.25;2098466;28;20535;-86
2023/03/20 01:12:58;;;;;;;4.53;1.10;;;;;;;3.65;100.00;93176.94;2090936;28;20469;-85
2023/03/20 01:14:01;;;;;;;0.70;0.70;;;;;;;3.71;100.00;93189.44;2090944;28;20077;-86
2023/03/20 01:15:03;;;;;;;1.20;1.10;;;;;;;3.63;100.00;93182.59;2092641;28;20077;-85
2023/03/20 01:16:05;;;;;;;1.65;1.13;;;;;;;3.56;100.00;93189.72;2091926;28;20040;-85
2023/03/20 01:17:19;;;;;;;1.33;1.23;;;;;;;3.52;100.00;93182.53;2096316;28;20029;-82
2023/03/20 01:18:21;;;;;;;1.30;1.20;;;;;;;3.65;100.00;93187.53;2084679;28;20075;-85
2023/03/20 01:19:22;;;;;;;1.83;1.40;;;;;;;3.64;100.00;93188.63;2090000;28;20010;-84
2023/03/20 01:20:29;;;;;;;1.73;1.30;;;;;;;3.66;100.00;93183.75;2092244;28;20017;-84
2023/03/20 01:21:30;;;;;;;1.85;1.20;;;;;;;3.66;100.00;93183.75;2093237;28;20068;-85
2023/03/20 01:22:31;;;;;;;1.50;1.30;;;;;;;3.59;100.00;93186.34;2077396;28;20037;-84
2023/03/20 01:23:32;;;;;;;2.35;1.63;;;;;;;3.59;100.00;93183.69;2084858;28;20025;-84
2023/03/20 01:24:33;;;;;;;2.65;1.58;;;;;;;3.54;100.00;93182.91;2084285;28;20099;-85
2023/03/20 01:25:35;;;;;;;9.30;1.80;;;;;;;3.59;100.00;93183.69;2076229;28;20022;-84
2023/03/20 01:26:39;;;;;;;1.67;1.38;;;;;;;3.63;100.00;93181.84;2075530;28;20510;-86
2023/03/20 01:27:43;;;;;;;2.53;1.40;;;;;;;3.60;100.00;93185.19;2083697;28;20027;-86
2023/03/20 01:28:44;;;;;;;1.58;1.48;;;;;;;3.57;100.00;93185.97;2083577;28;20029;-86
2023/03/20 01:29:45;;;;;;;2.60;1.50;;;;;;;3.65;100.00;93187.53;2074790;28;20022;-85
2023/03/20 01:30:55;;;;;;;2.22;1.60;;;;;;;3.70;100.00;93189.81;2074575;28;20085;-85
2023/03/20 01:31:56;;;;;;;4.05;1.50;;;;;;;3.72;100.00;93182.25;2075884;28;20088;-85
2023/03/20 01:33:00;;;;;;;1.27;1.17;;;;;;;3.74;100.00;93191.34;2066607;28;20030;-85
2023/03/20 01:34:03;;;;;;;1.88;1.63;;;;;;;3.72;100.00;93182.25;2082624;28;20029;-84
2023/03/20 01:35:05;;;;;;;1.55;1.45;;;;;;;3.70;100.00;93182.63;2082887;28;20490;-86
2023/03/20 01:36:09;;;;;;;3.53;1.42;;;;;;;3.74;100.00;93177.38;2079831;28;20098;-86
2023/03/20 01:37:15;;;;;;;1.30;1.20;;;;;;;3.74;100.00;93175.47;2081982;28;20033;-86
2023/03/20 01:38:22;;;;;;;1.65;1.33;;;;;;;3.87;100.00;93175.91;2077336;28;20040;-85
2023/03/20 01:39:32;;;;;;;1.95;1.25;;;;;;;3.85;100.00;93177.41;2074467;28;20030;-85
2023/03/20 01:40:38;;;;;;;1.50;1.40;;;;;;;3.86;100.00;93179.66;2074830;28;20122;-85
2023/03/20 01:41:39;;;;;;;1.75;1.35;;;;;;;3.85;100.00;93188.75;2067071;28;20448;-85
2023/03/20 01:42:40;;;;;;;2.05;1.48;;;;;;;3.83;100.00;93185.72;2073507;28;20018;-85
2023/03/20 01:43:42;;;;;;;1.45;1.10;;;;;;;3.83;100.00;93182.31;2073463;28;20411;-85
2023/03/20 01:44:43;;;;;;;2.13;1.33;;;;;;;3.82;100.00;93181.56;2073612;28;20026;-85
2023/03/20 01:46:08;;;;;;;2.63;1.25;;;;;;;3.83;100.00;93190.25;2073645;28;20022;-85
2023/03/20 01:47:21;;;;;;;1.65;1.35;;;;;;;3.79;100.00;93192.88;2076627;28;20021;-85
2023/03/20 01:48:26;;;;;;;2.00;1.00;;;;;;;3.85;100.00;93191.38;2072284;28;20352;-85
2023/03/20 01:49:27;;;;;;;2.03;1.02;;;;;;;3.89;100.00;93194.81;2074880;28;20403;-86
2023/03/20 01:50:31;;;;;;;0.90;0.90;;;;;;;3.83;100.00;93195.53;2073651;28;20021;-85
2023/03/20 01:52:01;;;;;;;1.67;1.23;;;;;;;3.84;100.00;93191.75;2074411;28;20137;-84
2023/03/20 01:53:08;;;;;;;;;;;;;;;3.75;100.00;93190.22;2075075;28;20059;-86
2023/03/20 01:54:14;;;;;;;1.40;1.30;;;;;;;3.83;100.00;93190.25;2066644;28;19910;-85
2023/03/20 01:55:17;;;;;;;1.30;1.15;;;;;;;3.87;100.00;93194.44;2066773;28;20034;-85
2023/03/20 01:56:19;;;;;;;1.30;1.20;;;;;;;3.89;100.00;93186.13;2081568;28;20677;-85
2023/03/20 01:57:24;;;;;;;3.30;1.67;;;;;;;3.90;100.00;93195.56;2089748;28;20024;-84
2023/03/20 01:58:35;;;;;;;1.25;1.15;;;;;;;3.90;100.00;93192.91;2073801;28;20100;-86
2023/03/20 02:00:01;;;;;;;1.35;1.10;;;;;;;3.90;100.00;93184.97;2075943;28;20108;-85
2023/03/20 02:01:05;;;;;;;1.75;1.13;;;;;;;3.99;100.00;93190.69;2088580;28;20392;-85
2023/03/20 02:02:08;;;;;;;1.63;1.20;;;;;;;3.94;100.00;93189.16;2090078;28;20021;-85
2023/03/20 02:03:10;;;;;;;1.50;1.40;;;;;;;4.01;100.00;93183.16;2081883;28;20047;-86
2023/03/20 02:04:15;;;;;;;1.60;1.20;;;;;;;4.02;100.00;93190.69;2081580;28;20033;-85
2023/03/20 02:05:19;;;;;;;1.50;1.30;;;;;;;3.96;100.00;93192.19;2082008;28;20052;-85
2023/03/20 02:06:22;;;;;;;1.50;1.38;;;;;;;3.97;100.00;93198.25;2073992;28;20443;-85
2023/03/20 02:07:24;;;;;;;1.52;1.40;;;;;;;3.97;100.00;93191.06;2073721;28;20495;-86
2023/03/20 02:08:28;;;;;;;2.10;1.48;;;;;;;4.06;100.00;93197.91;2073348;28;20526;-85
2023/03/20 02:09:29;;;;;;;1.20;1.10;;;;;;;4.04;100.00;93187.69;2081726;28;20037;-85
2023/03/20 02:10:30;;;;;;;1.20;1.10;;;;;;;4.02;100.00;93196.00;2087154;28;20041;-85
2023/03/20 02:11:32;;;;;;;1.05;0.95;;;;;;;3.98;100.00;93191.81;2081032;28;20367;-85
2023/03/20 02:12:34;;;;;;;1.10;1.00;;;;;;;3.98;100.00;93189.16;2065361;28;20413;-85
2023/03/20 02:13:35;;;;;;;1.67;1.20;;;;;;;3.91;100.00;93197.09;2073250;28;20121;-85
2023/03/20 02:14:37;;;;;;;1.63;1.23;;;;;;;3.92;100.00;93194.06;2074598;28;20112;-85
2023/03/20 02:16:15;;;;;;;2.42;1.20;;;;;;;3.90;100.00;93195.56;2065210;28;20438;-85
2023/03/20 02:17:16;;;;;;;1.20;1.02;;;;;;;3.91;100.00;93197.84;2052164;28;20542;-84
2023/03/20 02:30:41;;;;;;;3.78;2.05;;;;;;;3.79;100.00;93208.72;2583536;22;20679;-86
2023/03/20 02:32:24;;;;;;;2.08;1.92;;;;;;;3.88;100.00;93205.75;2560483;23;24491;-86
2023/03/20 02:33:46;;;;;;;1.95;1.58;;;;;;;4.02;100.00;93206.56;2520799;23;20473;-83
2023/03/20 02:35:09;;;;;;;3.25;1.60;;;;;;;4.05;100.00;93207.72;2516392;23;20481;-84
2023/03/20 02:36:34;;;;;;;1.45;1.35;;;;;;;4.00;100.00;93211.50;2550775;23;20179;-83
2023/03/20 02:38:16;;;;;;;1.55;1.42;;;;;;;3.98;100.00;93211.09;2566352;23;20001;-83
2023/03/20 02:39:20;;;;;;;1.70;1.40;;;;;;;4.03;100.00;93205.44;2557040;23;20093;-84
2023/03/20 02:40:33;;;;;;;1.50;1.40;;;;;;;4.03;100.00;93204.69;2537636;23;20010;-83
2023/03/20 02:41:45;;;;;;;3.55;1.70;;;;;;;4.02;100.00;93206.56;2554056;23;20013;-84
2023/03/20 02:42:55;;;;;;;1.77;1.38;;;;;;;3.98;100.00;93208.44;2561309;23;20008;-84
2023/03/20 02:44:35;;;;;;;1.40;1.30;;;;;;;4.03;100.00;93202.78;2540126;23;20005;-83
2023/03/20 02:45:47;;;;;;;;;;;;;;;4.00;100.00;93197.50;2553038;23;20091;-84
2023/03/20 02:47:01;;;;;;;1.20;1.10;;;;;;;4.00;100.00;93211.50;2551443;23;19904;-84
2023/03/20 02:48:21;;;;;;;1.95;1.38;;;;;;;3.96;100.00;93208.06;2554448;23;20472;-84
2023/03/20 02:49:40;;;;;;;1.60;1.50;;;;;;;3.99;100.00;93201.25;2552593;23;20009;-84
2023/03/20 02:50:57;;;;;;;2.47;1.57;;;;;;;3.98;100.00;93205.03;2552724;23;20088;-83
2023/03/20 02:52:08;;;;;;;1.60;1.50;;;;;;;3.94;100.00;93202.38;2551964;23;20401;-84
2023/03/20 02:53:35;;;;;;;1.98;1.30;;;;;;;3.98;100.00;93195.22;2540758;23;20005;-84
2023/03/20 02:54:49;;;;;;;1.23;1.10;;;;;;;3.93;100.00;93200.09;2547293;23;20008;-85
2023/03/20 02:56:01;;;;;;;1.48;1.35;;;;;;;3.91;100.00;93205.78;2551881;23;20005;-83
2023/03/20 02:57:08;;;;;;;2.22;1.48;;;;;;;3.91;100.00;93207.66;2541213;23;20049;-84
2023/03/20 02:58:17;;;;;;;1.40;1.30;;;;;;;3.95;100.00;93203.91;2549810;23;20001;-83
2023/03/20 02:59:20;;;;;;;1.03;1.03;;;;;;;3.96;100.00;93196.72;2540149;23;20585;-85
2023/03/20 03:00:47;;;;;;;2.80;1.30;;;;;;;4.02;100.00;93211.09;2537827;23;20900;-83
2023/03/20 03:01:58;;;;;;;1.25;1.15;;;;;;;4.05;100.00;93202.44;2547581;23;20163;-84
2023/03/20 03:03:15;;;;;;;2.15;1.50;;;;;;;4.07;100.00;93207.34;2553240;23;20005;-85
2023/03/20 03:04:20;;;;;;;2.38;1.23;;;;;;;3.99;100.00;93202.00;2585620;22;20020;-83
2023/03/20 03:05:29;;;;;;;2.10;1.00;;;;;;;3.95;100.00;93211.84;2585189;23;19993;-84
2023/03/20 03:06:35;;;;;;;1.90;1.20;;;;;;;4.02;100.00;93203.16;2585366;23;20016;-83
2023/03/20 03:07:41;;;;;;;1.73;1.50;;;;;;;3.99;100.00;93209.19;2570677;23;20018;-82
2023/03/20 03:08:50;;;;;;;1.40;1.30;;;;;;;3.94;100.00;93212.19;2539215;23;20017;-84
2023/03/20 03:10:00;;;;;;;1.48;1.00;;;;;;;4.01;100.00;93210.34;2550733;23;20005;-83
2023/03/20 03:11:06;;;;;;;1.45;1.33;;;;;;;3.97;100.00;93211.47;2550616;23;20048;-84
2023/03/20 03:12:19;;;;;;;1.40;1.30;;;;;;;3.98;100.00;93215.63;2549876;23;20044;-83
2023/03/20 03:13:27;;;;;;;1.95;1.10;;;;;;;3.99;100.00;93219.78;2554110;23;20001;-82
2023/03/20 03:14:39;;;;;;;2.53;1.10;;;;;;;4.00;100.00;93214.13;2573455;23;20371;-83
2023/03/20 03:15:49;;;;;;;1.27;1.08;;;;;;;3.99;100.00;93212.59;2560752;23;20011;-84
2023/03/20 03:16:52;;;;;;;3.95;1.20;;;;;;;3.98;100.00;93207.69;2540172;23;20057;-84
2023/03/20 03:17:57;;;;;;;1.48;1.20;;;;;;;3.97;100.00;93214.09;2537502;23;20002;-84
2023/03/20 03:19:22;;;;;;;1.30;1.20;;;;;;;4.01;100.00;93223.56;2538325;23;20081;-86
2023/03/20 03:20:31;;;;;;;1.20;1.10;;;;;;;3.93;100.00;93227.31;2558804;23;20004;-85
2023/03/20 03:21:34;;;;;;;2.97;1.20;;;;;;;4.00;100.00;93224.72;2550457;23;20041;-84
2023/03/20 03:22:36;;;;;;;1.25;1.10;;;;;;;3.96;100.00;93223.94;2549601;23;20241;-84
2023/03/20 03:23:46;;;;;;;1.20;1.10;;;;;;;3.99;100.00;93228.47;2561140;23;20123;-85
2023/03/20 03:24:51;;;;;;;1.48;1.20;;;;;;;3.96;100.00;93229.22;2550619;23;20169;-86
2023/03/20 03:25:54;;;;;;;1.10;1.10;;;;;;;3.95;100.00;93238.28;2538144;23;20434;-86
2023/03/20 03:26:58;;;;;;;1.60;1.50;;;;;;;3.93;100.00;93224.66;2537578;23;20001;-83
2023/03/20 03:28:18;;;;;;;1.23;1.13;;;;;;;3.99;100.00;93228.47;2537778;23;20402;-84
2023/03/20 03:29:23;;;;;;;1.02;0.98;;;;;;;3.99;100.00;93235.63;2564851;23;20076;-84
2023/03/20 03:30:30;;;;;;;1.20;1.10;;;;;;;4.01;100.00;93234.16;2549241;23;20021;-85
2023/03/20 03:31:32;;;;;;;1.45;1.10;;;;;;;3.95;100.00;93227.72;2547293;23;20005;-86
2023/03/20 03:32:43;;;;;;;1.42;1.20;;;;;;;3.92;100.00;93231.09;2547065;23;20012;-87
2023/03/20 03:33:47;;;;;;;1.10;1.00;;;;;;;4.01;100.00;93228.09;2549303;23;20009;-86
2023/03/20 03:34:49;;;;;;;2.30;1.17;;;;;;;4.03;100.00;93236.41;2547800;23;20001;-86
2023/03/20 03:35:56;;;;;;;0.90;0.90;;;;;;;4.00;100.00;93235.28;2534996;23;20010;-85
2023/03/20 03:37:10;;;;;;;1.67;0.93;;;;;;;4.00;100.00;93235.28;2536933;23;20009;-85
2023/03/20 03:38:28;;;;;;;1.13;1.02;;;;;;;4.02;100.00;93230.38;2551915;23;20008;-86
2023/03/20 03:40:24;;;;;;;2.05;1.20;;;;;;;4.00;100.00;93230.00;2559059;23;20005;-84
2023/03/20 03:41:33;;;;;;;4.03;1.30;;;;;;;4.00;100.00;93232.66;2567578;23;20008;-84
2023/03/20 03:42:40;;;;;;;1.40;1.30;;;;;;;4.04;100.00;93230.78;2548026;23;20020;-85
2023/03/20 03:44:10;;;;;;;1.20;1.10;;;;;;;3.99;100.00;93233.00;2537201;23;20002;-86
2023/03/20 03:45:20;;;;;;;1.52;1.10;;;;;;;4.04;100.00;93237.97;2557977;23;20004;-84
2023/03/20 03:46:34;;;;;;;1.20;1.10;;;;;;;4.03;100.00;93229.22;2548121;23;20623;-86
2023/03/20 03:48:04;;;;;;;1.15;1.00;;;;;;;4.09;100.00;93242.13;2539290;23;20010;-83
2023/03/20 03:49:08;;;;;;;;;;;;;;;4.22;100.00;93236.13;2546628;23;20101;-83
2023/03/20 03:50:17;;;;;;;0.98;0.90;;;;;;;4.19;100.00;93236.13;2546602;23;19948;-85
2023/03/20 03:51:23;;;;;;;0.80;0.80;;;;;;;4.15;100.00;93238.75;2548014;23;20405;-83
2023/03/20 03:52:30;;;;;;;1.10;0.80;;;;;;;4.16;100.00;93237.59;2536026;23;20081;-85
2023/03/20 03:53:40;;;;;;;2.35;1.10;;;;;;;4.23;100.00;93242.94;2548863;23;20436;-85
2023/03/20 03:55:02;;;;;;;2.28;1.00;;;;;;;4.19;100.00;93244.81;2547562;23;20013;-85
2023/03/20 03:56:08;;;;;;;0.82;0.82;;;;;;;4.18;100.00;93242.53;2542348;23;20005;-84
2023/03/20 03:57:12;;;;;;;0.98;0.85;;;;;;;4.17;100.00;93235.72;2536215;23;20006;-85
2023/03/20 03:58:15;;;;;;;1.05;0.90;;;;;;;4.15;100.00;93241.38;2535396;23;20033;-86
2023/03/20 03:59:31;;;;;;;3.92;0.90;;;;;;;4.17;100.00;93244.44;2535961;23;20045;-86
2023/03/20 04:00:34;;;;;;;1.05;0.77;;;;;;;4.18;100.00;93245.19;2552079;23;19990;-82
2023/03/20 04:01:38;;;;;;;1.45;0.98;;;;;;;4.15;100.00;93241.38;2559486;23;19986;-85
2023/03/20 04:02:42;;;;;;;1.15;1.00;;;;;;;4.16;100.00;93244.78;2555797;23;20021;-86
2023/03/20 04:04:13;;;;;;;0.90;0.90;;;;;;;4.15;100.00;93236.09;2539008;23;20413;-84
2023/03/20 04:05:18;;;;;;;1.83;1.08;;;;;;;4.18;100.00;93239.91;2559915;23;20019;-83
2023/03/20 04:06:20;;;;;;;3.53;2.10;;;;;;;4.19;100.00;93236.13;2562257;23;20005;-83
2023/03/20 04:07:25;;;;;;;12.05;7.35;;;;;;;4.17;100.00;93238.38;2548490;23;20013;-83
2023/03/20 04:08:26;;;;;;;8.50;6.80;;;;;;;4.22;100.00;93230.09;2537723;23;20002;-86
2023/03/20 04:09:27;;;;;;;9.05;7.50;;;;;;;4.38;100.00;93243.75;2535510;23;20029;-86
2023/03/20 04:10:29;;;;;;;9.10;8.20;;;;;;;4.44;100.00;93231.69;2535837;23;20006;-86
2023/03/20 04:11:30;;;;;;;5.32;4.82;;;;;;;4.44;100.00;93236.97;2535626;23;20089;-86
2023/03/20 04:12:37;;;;;;;5.15;4.65;;;;;;;4.29;100.00;93243.34;2535249;23;20017;-86
2023/03/20 04:13:38;;;;;;;4.30;2.85;;;;;;;4.30;100.00;93236.91;2537117;23;20397;-85
2023/03/20 04:14:39;;;;;;;1.85;1.75;;;;;;;4.25;100.00;93245.22;2559082;23;20032;-84
2023/03/20 04:15:40;;;;;;;2.42;1.50;;;;;;;4.22;100.00;93241.44;2546551;23;20108;-86
2023/03/20 04:16:41;;;;;;;1.60;1.45;;;;;;;4.22;100.00;93245.97;2534212;23;20053;-85
2023/03/20 04:17:44;;;;;;;1.75;1.65;;;;;;;4.22;100.00;93241.44;2534362;23;20053;-84
2023/03/20 04:18:46;;;;;;;1.58;1.48;;;;;;;4.17;100.00;93241.00;2534985;23;20005;-86
2023/03/20 04:19:48;;;;;;;1.50;1.40;;;;;;;4.27;100.00;93238.44;2546416;23;20452;-86
2023/03/20 04:20:51;;;;;;;1.42;1.30;;;;;;;4.29;100.00;93243.34;2546484;23;20028;-84
2023/03/20 04:21:54;;;;;;;1.90;1.45;;;;;;;4.24;100.00;93241.81;2558550;23;20481;-84
2023/03/20 04:23:00;;;;;;;1.35;1.20;;;;;;;4.23;100.00;93235.00;2558461;23;20393;-86
2023/03/20 04:24:02;;;;;;;1.70;1.20;;;;;;;4.25;100.00;93237.25;2536259;23;20006;-85
2023/03/20 04:25:08;;;;;;;0.98;0.98;;;;;;;4.24;100.00;93231.22;2534357;23;20012;-85
2023/03/20 04:26:36;;;;;;;1.10;1.00;;;;;;;4.26;100.00;93233.50;2535779;23;20081;-86
2023/03/20 04:27:45;;;;;;;2.55;0.80;;;;;;;4.24;100.00;93227.81;2545113;23;20005;-85
2023/03/20 04:28:51;;;;;;;1.20;1.00;;;;;;;4.24;100.00;93228.56;2559811;23;20008;-86
2023/03/20 04:29:59;;;;;;;0.90;0.90;;;;;;;4.24;100.00;93231.22;2570357;23;20020;-85
2023/03/20 04:31:01;;;;;;;2.88;1.00;;;;;;;4.22;100.00;93236.13;2547222;23;20001;-88
2023/03/20 04:32:03;;;;;;;1.20;1.10;;;;;;;4.19;100.00;93238.75;2534236;23;20017;-84
2023/03/20 04:33:07;;;;;;;1.20;1.00;;;;;;;4.14;100.00;93242.53;2534265;23;20010;-84
2023/03/20 04:34:11;;;;;;;1.42;1.25;;;;;;;4.14;100.00;93231.19;2546450;23;20013;-84
2023/03/20 04:35:18;;;;;;;2.15;1.17;;;;;;;4.12;100.00;93230.78;2547107;23;20413;-84
2023/03/20 04:36:23;;;;;;;1.00;1.00;;;;;;;4.16;100.00;93237.59;2547044;23;20148;-84
2023/03/20 04:37:31;;;;;;;4.72;4.43;;;;;;;4.21;100.00;93229.31;2546807;23;20005;-84
2023/03/20 04:38:33;;;;;;;4.07;3.75;;;;;;;4.13;100.00;93233.09;2547009;23;20009;-84
2023/03/20 04:39:41;;;;;;;4.80;4.50;;;;;;;4.11;100.00;93235.31;2534167;23;20014;-85
2023/03/20 04:40:49;;;;;;;6.13;5.82;;;;;;;4.02;100.00;93238.31;2547102;23;20009;-84
2023/03/20 04:41:54;;;;;;;4.68;3.80;;;;;;;4.08;100.00;93236.06;2548303;23;20005;-84
2023/03/20 04:43:03;;;;;;;2.28;2.17;;;;;;;4.06;100.00;93240.22;2535216;23;20010;-85
2023/03/20 04:44:08;;;;;;;1.50;1.40;;;;;;;4.09;100.00;93236.84;2536549;23;20033;-84
2023/03/20 04:45:15;;;;;;;1.48;1.30;;;;;;;4.15;100.00;93238.00;2547636;23;20001;-83
2023/03/20 04:46:18;;;;;;;1.27;1.17;;;;;;;4.10;100.00;93236.47;2559572;23;20008;-84
2023/03/20 04:47:28;;;;;;;1.33;1.00;;;;;;;4.08;100.00;93240.59;2545904;23;20017;-84
2023/03/20 04:48:35;;;;;;;1.33;1.23;;;;;;;4.07;100.00;93239.09;2549566;23;20360;-84
2023/03/20 04:49:39;;;;;;;1.58;1.48;;;;;;;4.02;100.00;93240.19;2547014;23;20326;-84
2023/03/20 04:50:50;;;;;;;2.80;1.23;;;;;;;3.97;100.00;93233.38;2534846;23;20337;-84
2023/03/20 04:51:57;;;;;;;1.38;1.27;;;;;;;4.05;100.00;93231.53;2547783;23;20012;-84
2023/03/20 04:53:03;;;;;;;1.30;1.20;;;;;;;4.05;100.00;93239.47;2536314;23;20026;-85
2023/03/20 04:54:08;;;;;;;1.30;1.20;;;;;;;4.02;100.00;93235.66;2547390;23;20013;-83
2023/03/20 04:55:17;;;;;;;1.17;1.08;;;;;;;4.04;100.00;93235.31;2543462;23;20002;-84
2023/03/20 04:56:19;;;;;;;2.13;1.10;;;;;;;4.06;100.00;93234.94;2548887;23;20054;-86
2023/03/20 04:57:27;;;;;;;2.72;1.17;;;;;;;4.08;100.00;93243.25;2545328;23;19990;-83
2023/03/20 04:58:35;;;;;;;1.10;1.00;;;;;;;3.98;100.00;93242.06;2556968;23;20006;-83
2023/03/20 04:59:44;;;;;;;1.05;0.95;;;;;;;4.07;100.00;93241.72;2547574;23;20084;-83
2023/03/20 05:00:50;;;;;;;1.30;1.20;;;;;;;4.11;100.00;93247.78;2549135;23;20057;-82
2023/03/20 05:01:57;;;;;;;0.93;0.90;;;;;;;4.10;100.00;93246.28;2546955;23;20437;-83
2023/03/20 05:03:04;;;;;;;1.13;1.02;;;;;;;4.11;100.00;93242.50;2536256;23;20061;-85
2023/03/20 05:04:12;;;;;;;3.22;1.20;;;;;;;4.27;100.00;93254.28;2548101;23;20009;-83
2023/03/20 05:05:19;;;;;;;1.40;1.17;;;;;;;4.37;100.00;93255.47;2547433;23;20002;-84
2023/03/20 05:06:22;;;;;;;1.27;1.10;;;;;;;4.27;100.00;93254.28;2547151;23;20001;-83
2023/03/20 05:07:25;;;;;;;2.35;1.27;;;;;;;4.18;100.00;93253.13;2546017;23;20001;-84
2023/03/20 05:08:31;;;;;;;1.30;1.20;;;;;;;4.15;100.00;93262.56;2546014;23;20008;-83
2023/03/20 05:09:38;;;;;;;1.15;1.10;;;;;;;4.13;100.00;93258.78;2546927;23;19998;-83
2023/03/20 05:10:43;;;;;;;1.73;1.50;;;;;;;4.10;100.00;93262.91;2536011;23;20001;-85
2023/03/20 05:11:49;;;;;;;2.08;1.70;;;;;;;4.09;100.00;93264.03;2547279;23;19997;-85
2023/03/20 05:12:55;;;;;;;6.20;5.13;;;;;;;4.06;100.00;93259.50;2546588;23;20068;-84
2023/03/20 05:14:05;;;;;;;13.32;10.60;;;;;;;4.07;100.00;93262.88;2556904;23;20005;-86
2023/03/20 05:15:14;;;;;;;13.02;10.25;;;;;;;4.07;100.00;93261.00;2558064;23;20001;-84
2023/03/20 05:16:16;;;;;;;9.73;7.90;;;;;;;4.10;100.00;93265.56;2546407;23;20005;-84
2023/03/20 05:17:19;;;;;;;2.60;2.35;;;;;;;4.10;100.00;93259.50;2533399;23;20085;-86
2023/03/20 05:18:26;;;;;;;3.40;1.52;;;;;;;4.13;100.00;93267.47;2545696;23;20006;-85
2023/03/20 05:19:30;;;;;;;1.50;1.40;;;;;;;4.13;100.00;93278.06;2534399;23;20010;-85
2023/03/20 05:20:35;;;;;;;1.58;1.48;;;;;;;4.14;100.00;93270.88;2534627;23;20104;-84
2023/03/20 05:21:39;;;;;;;4.20;1.90;;;;;;;4.13;100.00;93269.34;2545988;23;20005;-85
2023/03/20 05:22:43;;;;;;;1.38;1.25;;;;;;;4.10;100.00;93270.09;2534326;23;20010;-83
2023/03/20 05:23:44;;;;;;;2.83;1.27;;;;;;;4.10;100.00;93267.44;2547646;23;20005;-84
2023/03/20 05:24:52;;;;;;;1.20;1.10;;;;;;;4.11;100.00;93268.97;2546268;23;20500;-83
2023/03/20 05:25:55;;;;;;;2.58;1.42;;;;;;;4.06;100.00;93270.06;2548895;23;20437;-84
2023/03/20 05:26:59;;;;;;;1.67;1.27;;;;;;;4.10;100.00;93254.97;2546233;23;20334;-85
2023/03/20 05:28:07;;;;;;;2.22;1.50;;;;;;;4.15;100.00;93254.63;2534254;23;20002;-84
2023/03/20 05:29:34;;;;;;;1.30;1.20;;;;;;;4.12;100.00;93249.31;2536049;23;20008;-84
2023/03/20 05:30:40;;;;;;;1.55;1.38;;;;;;;4.13;100.00;93250.84;2550610;23;20099;-84
2023/03/20 05:31:47;;;;;;;1.25;1.15;;;;;;;4.25;100.00;93240.66;2547359;23;20013;-84
2023/03/20 05:32:52;;;;;;;1.10;1.00;;;;;;;4.11;100.00;93245.16;2547478;23;20480;-85